createdAt,value
2018-02-05T00:00:32.993Z,6.60
2018-02-05T00:03:00.466Z,6.80
2018-02-05T00:05:28.689Z,7.30
2018-02-05T00:07:56.170Z,6.70
2018-02-05T00:10:23.646Z,6.80
2018-02-05T00:12:51.878Z,7.80
2018-02-05T00:15:19.413Z,7.40
2018-02-05T00:17:46.881Z,8.10
2018-02-05T00:20:14.366Z,8.43
2018-02-05T00:22:41.821Z,7.87
2018-02-05T00:25:09.281Z,7.60
2018-02-05T00:27:36.753Z,7.23
2018-02-05T00:30:04.206Z,7.67
2018-02-05T00:32:31.682Z,7.57
2018-02-05T00:34:59.974Z,7.30
2018-02-05T00:37:27.458Z,7.37
2018-02-05T00:39:54.909Z,7.73
2018-02-05T00:42:22.407Z,7.47
2018-02-05T00:44:49.890Z,7.63
2018-02-05T00:47:17.354Z,7.63
2018-02-05T00:49:44.801Z,7.47
2018-02-05T00:52:12.275Z,7.87
2018-02-05T00:54:39.728Z,8.10
2018-02-05T00:57:07.983Z,8.10
2018-02-05T00:59:35.434Z,7.80
2018-02-05T01:02:02.922Z,8.27
2018-02-05T01:04:30.382Z,8.07
2018-02-05T01:06:57.854Z,8.93
2018-02-05T01:09:25.341Z,9.00
2018-02-05T01:11:54.302Z,9.47
2018-02-05T01:14:21.799Z,9.87
2018-02-05T01:16:49.243Z,9.23
2018-02-05T01:19:16.730Z,8.83
2018-02-05T01:21:44.193Z,8.70
2018-02-05T01:24:11.650Z,9.57
2018-02-05T01:26:39.133Z,9.70
2018-02-05T01:29:06.579Z,9.80
2018-02-05T01:31:34.058Z,9.27
2018-02-05T01:34:01.521Z,9.17
2018-02-05T01:36:28.973Z,9.43
2018-02-05T01:38:56.447Z,9.43
2018-02-05T01:41:24.673Z,8.80
2018-02-05T01:43:52.142Z,9.03
2018-02-05T01:46:19.602Z,8.80
2018-02-05T01:48:47.092Z,9.07
2018-02-05T01:51:14.590Z,9.23
2018-02-05T01:53:42.805Z,9.53
2018-02-05T01:56:10.286Z,9.80
2018-02-05T01:58:37.775Z,9.27
2018-02-05T02:01:05.250Z,9.93
2018-02-05T02:03:33.471Z,9.90
2018-02-05T02:06:00.966Z,9.97
2018-02-05T02:08:28.469Z,10.37
2018-02-05T02:10:55.925Z,10.63
2018-02-05T02:13:23.396Z,9.90
2018-02-05T02:15:50.886Z,9.97
2018-02-05T02:18:18.350Z,10.37
2018-02-05T02:20:45.805Z,9.93
2018-02-05T02:23:13.290Z,10.20
2018-02-05T02:25:40.798Z,10.57
2018-02-05T02:28:08.245Z,10.80
2018-02-05T02:30:35.705Z,9.80
2018-02-05T02:33:03.190Z,10.03
2018-02-05T02:35:30.650Z,10.57
2018-02-05T02:37:58.134Z,10.17
2018-02-05T02:40:25.586Z,9.80
2018-02-05T02:42:53.805Z,9.37
2018-02-05T02:45:22.071Z,11.20
2018-02-05T02:47:49.527Z,11.10
2018-02-05T02:50:17.017Z,11.30
2018-02-05T02:52:44.466Z,10.57
2018-02-05T02:55:11.929Z,11.03
2018-02-05T02:57:39.406Z,10.83
2018-02-05T03:00:07.661Z,10.47
2018-02-05T03:02:35.114Z,11.07
2018-02-05T03:05:02.595Z,9.83
2018-02-05T03:07:30.818Z,10.83
2018-02-05T03:09:58.293Z,10.57
2018-02-05T03:12:25.742Z,10.67
2018-02-05T03:14:53.243Z,10.90
2018-02-05T03:17:21.490Z,11.73
2018-02-05T03:19:48.939Z,10.50
2018-02-05T03:22:16.437Z,11.10
2018-02-05T03:24:44.642Z,10.30
2018-02-05T03:27:12.187Z,10.37
2018-02-05T03:29:39.643Z,10.83
2018-02-05T03:32:07.110Z,9.97
2018-02-05T03:34:34.559Z,10.73
2018-02-05T03:37:02.027Z,11.30
2018-02-05T03:39:29.516Z,11.23
2018-02-05T03:41:56.979Z,11.00
2018-02-05T03:44:24.414Z,10.87
2018-02-05T03:46:51.875Z,10.57
2018-02-05T03:49:19.310Z,10.50
2018-02-05T03:51:46.766Z,11.07
2018-02-05T03:54:14.226Z,10.07
2018-02-05T03:56:41.675Z,10.80
2018-02-05T03:59:09.131Z,10.60
2018-02-05T04:01:36.587Z,10.57
2018-02-05T04:04:04.046Z,11.33
2018-02-05T04:06:31.504Z,11.17
2018-02-05T04:08:58.946Z,11.30
2018-02-05T04:11:26.389Z,10.93
2018-02-05T04:13:54.627Z,10.17
2018-02-05T04:16:22.075Z,10.13
2018-02-05T04:18:49.523Z,10.63
2018-02-05T04:21:16.991Z,11.00
2018-02-05T04:23:44.438Z,10.23
2018-02-05T04:26:11.878Z,10.63
2018-02-05T04:28:39.350Z,10.37
2018-02-05T04:31:06.786Z,9.93
2018-02-05T04:33:34.227Z,11.40
2018-02-05T04:36:01.683Z,11.00
2018-02-05T04:38:29.123Z,10.63
2018-02-05T04:40:56.601Z,10.63
2018-02-05T04:43:24.074Z,11.40
2018-02-05T04:45:51.514Z,10.13
2018-02-05T04:48:18.947Z,10.23
2018-02-05T04:50:47.194Z,10.93
2018-02-05T04:53:14.651Z,11.43
2018-02-05T04:55:42.210Z,10.73
2018-02-05T04:58:09.642Z,10.30
2018-02-05T05:00:37.100Z,11.90
2018-02-05T05:03:04.558Z,12.50
2018-02-05T05:05:32.040Z,11.10
2018-02-05T05:07:59.483Z,10.43
2018-02-05T05:10:26.947Z,10.90
2018-02-05T05:12:54.466Z,11.27
2018-02-05T05:15:22.039Z,10.60
2018-02-05T05:17:49.501Z,11.87
2018-02-05T05:20:16.950Z,11.80
2018-02-05T05:22:44.422Z,12.07
2018-02-05T05:25:11.865Z,11.87
2018-02-05T05:27:39.350Z,13.63
2018-02-05T05:30:06.806Z,12.73
2018-02-05T05:32:34.330Z,13.37
2018-02-05T05:35:01.807Z,13.27
2018-02-05T05:37:29.254Z,13.70
2018-02-05T05:39:56.727Z,13.80
2018-02-05T05:42:26.742Z,14.37
2018-02-05T05:44:54.971Z,12.83
2018-02-05T05:47:22.410Z,13.13
2018-02-05T05:49:49.884Z,13.93
2018-02-05T05:52:17.334Z,14.90
2018-02-05T05:54:45.546Z,13.33
2018-02-05T05:57:12.998Z,14.40
2018-02-05T05:59:40.444Z,14.93
2018-02-05T06:02:07.912Z,14.27
2018-02-05T06:04:35.355Z,14.07
2018-02-05T06:07:02.827Z,14.00
2018-02-05T06:09:30.282Z,12.90
2018-02-05T06:11:57.739Z,13.00
2018-02-05T06:14:25.193Z,11.80
2018-02-05T06:16:52.658Z,10.87
2018-02-05T06:19:20.122Z,11.33
2018-02-05T06:21:47.578Z,11.00
2018-02-05T06:24:15.027Z,10.47
2018-02-05T06:26:42.482Z,8.97
2018-02-05T06:29:09.951Z,9.27
2018-02-05T06:31:37.407Z,8.57
2018-02-05T06:34:04.894Z,8.13
2018-02-05T06:36:32.385Z,8.90
2018-02-05T06:38:59.849Z,8.27
2018-02-05T06:41:27.301Z,7.90
2018-02-05T06:43:54.805Z,8.47
2018-02-05T06:46:23.032Z,8.00
2018-02-05T06:48:51.281Z,7.87
2018-02-05T06:51:30.526Z,7.60
2018-02-05T06:57:11.129Z,7.93
2018-02-05T06:59:39.351Z,8.63
2018-02-05T07:02:06.809Z,8.67
2018-02-05T07:04:35.077Z,9.73
2018-02-05T07:07:02.554Z,8.80
2018-02-05T07:09:30.035Z,9.00
2018-02-05T07:11:58.255Z,9.13
2018-02-05T07:14:25.717Z,10.07
2018-02-05T07:16:53.195Z,10.40
2018-02-05T07:19:20.678Z,10.90
2018-02-05T07:21:48.910Z,10.33
2018-02-05T07:24:16.410Z,10.53
2018-02-05T07:26:43.932Z,11.13
2018-02-05T07:29:11.390Z,11.70
2018-02-05T07:31:38.921Z,12.50
2018-02-05T07:34:06.381Z,13.67
2018-02-05T07:36:33.849Z,13.90
2018-02-05T07:39:01.436Z,14.17
2018-02-05T07:41:28.919Z,14.90
2018-02-05T07:43:56.382Z,14.13
2018-02-05T07:46:23.919Z,14.47
2018-02-05T07:48:51.373Z,13.20
2018-02-05T07:51:18.845Z,14.17
2018-02-05T07:53:46.321Z,13.47
2018-02-05T07:56:14.554Z,12.70
2018-02-05T07:58:42.022Z,13.50
2018-02-05T08:01:09.514Z,12.73
2018-02-05T08:03:36.985Z,12.30
2018-02-05T08:06:04.435Z,11.83
2018-02-05T08:08:31.922Z,12.23
2018-02-05T08:10:59.386Z,11.63
2018-02-05T08:13:26.912Z,11.80
2018-02-05T08:15:54.374Z,11.20
2018-02-05T08:18:21.862Z,12.00
2018-02-05T08:20:49.373Z,11.10
2018-02-05T08:23:17.591Z,10.83
2018-02-05T08:25:45.050Z,10.33
2018-02-05T08:28:12.515Z,11.13
2018-02-05T08:30:39.970Z,10.30
2018-02-05T08:33:07.454Z,10.30
2018-02-05T08:35:35.669Z,10.07
2018-02-05T08:38:03.158Z,9.43
2018-02-05T08:40:30.619Z,9.57
2018-02-05T08:42:58.094Z,9.00
2018-02-05T08:45:25.597Z,8.97
2018-02-05T08:47:53.053Z,9.43
2018-02-05T08:50:20.508Z,7.20
2018-02-05T08:52:47.970Z,8.17
2018-02-05T08:55:15.418Z,8.30
2018-02-05T08:57:42.911Z,7.30
2018-02-05T09:00:11.125Z,7.90
2018-02-05T09:02:38.600Z,7.27
2018-02-05T09:05:06.082Z,7.33
2018-02-05T09:07:33.533Z,7.63
2018-02-05T09:10:01.021Z,7.50
2018-02-05T09:12:28.496Z,7.40
2018-02-05T09:14:55.978Z,7.13
2018-02-05T09:17:24.192Z,8.33
2018-02-05T09:19:51.639Z,7.90
2018-02-05T09:22:19.125Z,7.87
2018-02-05T09:24:46.561Z,7.20
2018-02-05T09:27:14.142Z,8.07
2018-02-05T09:29:41.608Z,7.20
2018-02-05T09:32:09.073Z,7.30
2018-02-05T09:34:36.542Z,7.67
2018-02-05T09:37:04.777Z,7.00
2018-02-05T09:39:32.232Z,7.50
2018-02-05T09:41:59.726Z,7.47
2018-02-05T09:44:27.251Z,7.57
2018-02-05T09:46:54.662Z,7.73
2018-02-05T09:49:22.152Z,8.13
2018-02-05T09:51:49.602Z,7.80
2018-02-05T09:54:17.079Z,7.67
2018-02-05T09:56:44.534Z,7.27
2018-02-05T09:59:12.014Z,7.67
2018-02-05T10:01:39.474Z,7.60
2018-02-05T10:04:06.938Z,8.63
2018-02-05T10:06:34.397Z,8.60
2018-02-05T10:09:01.898Z,7.77
2018-02-05T10:11:29.350Z,8.00
2018-02-05T10:13:56.806Z,8.00
2018-02-05T10:16:24.285Z,8.10
2018-02-05T10:18:51.782Z,6.70
2018-02-05T10:21:20.003Z,6.57
2018-02-05T10:23:47.453Z,7.07
2018-02-05T10:26:15.034Z,6.73
2018-02-05T10:28:42.498Z,6.53
2018-02-05T10:31:09.996Z,6.97
2018-02-05T10:33:37.441Z,6.60
2018-02-05T10:36:04.918Z,6.63
2018-02-05T10:38:33.137Z,7.10
2018-02-05T10:41:00.621Z,6.63
2018-02-05T10:43:28.065Z,7.27
2018-02-05T10:45:55.541Z,7.27
2018-02-05T10:48:23.025Z,7.93
2018-02-05T10:50:50.482Z,6.73
2018-02-05T10:53:17.966Z,7.37
2018-02-05T10:55:45.422Z,7.33
2018-02-05T10:58:12.910Z,8.07
2018-02-05T11:00:40.362Z,7.10
2018-02-05T11:03:07.854Z,7.03
2018-02-05T11:05:36.086Z,6.93
2018-02-05T11:08:03.593Z,6.90
2018-02-05T11:10:31.810Z,6.77
2018-02-05T11:12:59.276Z,6.70
2018-02-05T11:15:26.769Z,6.80
2018-02-05T11:17:54.988Z,7.40
2018-02-05T11:20:22.445Z,7.50
2018-02-05T11:22:50.211Z,8.53
2018-02-05T11:25:17.666Z,7.50
2018-02-05T11:27:45.142Z,7.50
2018-02-05T11:30:12.592Z,7.10
2018-02-05T11:32:40.045Z,6.70
2018-02-05T11:35:07.534Z,7.77
2018-02-05T11:37:35.000Z,30.77
2018-02-05T11:40:02.476Z,7.20
2018-02-05T11:42:29.934Z,7.17
2018-02-05T11:44:57.426Z,7.00
2018-02-05T11:47:24.895Z,6.73
2018-02-05T11:49:52.354Z,7.73
2018-02-05T11:52:19.821Z,6.30
2018-02-05T11:54:47.285Z,6.13
2018-02-05T11:57:14.867Z,5.90
2018-02-05T11:59:42.314Z,6.03
2018-02-05T12:02:09.789Z,5.23
2018-02-05T12:04:37.290Z,5.13
2018-02-05T12:07:04.761Z,4.67
2018-02-05T12:09:32.235Z,5.57
2018-02-05T12:11:59.697Z,4.27
2018-02-05T12:14:27.306Z,3.77
2018-02-05T12:16:54.769Z,4.10
2018-02-05T12:19:22.242Z,3.87
2018-02-05T12:21:49.706Z,4.70
2018-02-05T12:24:17.161Z,4.13
2018-02-05T12:26:44.637Z,4.30
2018-02-05T12:29:12.130Z,4.13
2018-02-05T12:31:40.369Z,4.83
2018-02-05T12:34:07.835Z,5.17
2018-02-05T12:36:35.328Z,4.23
2018-02-05T12:39:03.598Z,4.30
2018-02-05T12:41:31.074Z,4.90
2018-02-05T12:43:58.542Z,4.23
2018-02-05T12:46:26.018Z,4.43
2018-02-05T12:48:53.481Z,4.73
2018-02-05T12:51:20.987Z,4.63
2018-02-05T12:53:48.446Z,4.50
2018-02-05T12:56:15.899Z,4.40
2018-02-05T12:58:43.386Z,4.43
2018-02-05T13:01:25.730Z,4.70
2018-02-05T13:03:58.966Z,4.37
2018-02-05T13:06:44.651Z,4.50
2018-02-05T13:09:12.130Z,4.93
2018-02-05T13:11:39.577Z,4.90
2018-02-05T13:14:07.050Z,4.20
2018-02-05T13:16:35.326Z,4.27
2018-02-05T13:19:02.786Z,4.97
2018-02-05T13:21:30.283Z,5.30
2018-02-05T13:23:57.721Z,5.17
2018-02-05T13:26:25.170Z,5.33
2018-02-05T13:28:52.650Z,6.63
2018-02-05T13:31:20.890Z,8.73
2018-02-05T13:33:49.134Z,6.97
2018-02-05T13:36:16.639Z,10.73
2018-02-05T13:38:44.081Z,7.23
2018-02-05T13:41:11.529Z,6.10
2018-02-05T13:43:39.007Z,6.67
2018-02-05T13:46:06.457Z,6.73
2018-02-05T13:48:33.929Z,6.27
2018-02-05T13:51:01.460Z,6.37
2018-02-05T13:53:28.913Z,6.77
2018-02-05T13:55:56.373Z,6.73
2018-02-05T13:58:23.846Z,7.10
2018-02-05T14:00:51.363Z,6.87
2018-02-05T14:03:18.794Z,5.83
2018-02-05T14:05:46.249Z,6.47
2018-02-05T14:08:14.459Z,4.50
2018-02-05T14:10:41.949Z,4.67
2018-02-05T14:13:09.406Z,4.43
2018-02-05T14:15:36.867Z,4.47
2018-02-05T14:18:04.356Z,4.10
2018-02-05T14:20:32.639Z,4.20
2018-02-05T14:23:00.091Z,4.30
2018-02-05T14:25:28.342Z,4.13
2018-02-05T14:27:55.785Z,3.80
2018-02-05T14:30:23.246Z,4.37
2018-02-05T14:32:50.737Z,4.93
2018-02-05T14:35:18.201Z,5.10
2018-02-05T14:37:45.687Z,6.97
2018-02-05T14:40:13.270Z,7.30
2018-02-05T14:42:40.721Z,6.90
2018-02-05T14:45:08.194Z,6.67
2018-02-05T14:47:35.683Z,7.40
2018-02-05T14:50:03.138Z,6.70
2018-02-05T14:52:31.365Z,6.47
2018-02-05T14:54:58.835Z,5.80
2018-02-05T14:57:26.299Z,6.13
2018-02-05T14:59:53.758Z,6.90
2018-02-05T15:02:21.237Z,6.43
2018-02-05T15:04:48.748Z,5.93
2018-02-05T15:07:16.215Z,6.53
2018-02-05T15:09:43.717Z,5.37
2018-02-05T15:12:11.169Z,4.67
2018-02-05T15:14:39.385Z,4.80
2018-02-05T15:17:06.879Z,5.03
2018-02-05T15:19:34.323Z,5.50
2018-02-05T15:22:01.778Z,5.17
2018-02-05T15:24:29.260Z,4.67
2018-02-05T15:26:56.699Z,4.07
2018-02-05T15:29:24.166Z,4.43
2018-02-05T15:31:52.426Z,4.33
2018-02-05T15:34:19.861Z,3.43
2018-02-05T15:36:47.318Z,3.47
2018-02-05T15:39:14.858Z,3.70
2018-02-05T15:41:42.351Z,3.33
2018-02-05T15:44:09.790Z,3.37
2018-02-05T15:46:37.269Z,3.70
2018-02-05T15:49:04.742Z,4.50
2018-02-05T15:51:32.224Z,4.73
2018-02-05T15:53:59.661Z,4.67
2018-02-05T15:56:27.138Z,4.77
2018-02-05T15:58:54.609Z,5.27
2018-02-05T16:01:22.105Z,5.60
2018-02-05T16:03:49.549Z,5.93
2018-02-05T16:06:17.006Z,5.90
2018-02-05T16:08:44.489Z,6.13
2018-02-05T16:11:11.973Z,5.70
2018-02-05T16:13:40.186Z,6.07
2018-02-05T16:16:07.674Z,5.90
2018-02-05T16:18:35.142Z,6.33
2018-02-05T16:21:02.600Z,6.70
2018-02-05T16:23:30.086Z,6.37
2018-02-05T16:25:57.601Z,6.50
2018-02-05T16:28:24.989Z,6.10
2018-02-05T16:30:52.506Z,6.60
2018-02-05T16:33:19.983Z,6.40
2018-02-05T16:35:47.485Z,6.43
2018-02-05T16:38:15.008Z,6.97
2018-02-05T16:40:43.222Z,6.47
2018-02-05T16:43:10.710Z,6.47
2018-02-05T16:45:38.174Z,7.00
2018-02-05T16:48:05.649Z,6.57
2018-02-05T16:50:33.877Z,7.30
2018-02-05T16:53:01.361Z,6.90
2018-02-05T16:55:28.822Z,6.73
2018-02-05T16:57:56.297Z,6.70
2018-02-05T17:00:24.533Z,7.67
2018-02-05T17:02:51.991Z,7.27
2018-02-05T17:05:19.471Z,7.63
2018-02-05T17:07:46.929Z,6.37
2018-02-05T17:10:14.426Z,6.87
2018-02-05T17:12:41.922Z,7.13
2018-02-05T17:15:09.398Z,7.23
2018-02-05T17:17:36.886Z,7.80
2018-02-05T17:20:04.338Z,7.67
2018-02-05T17:22:31.827Z,7.57
2018-02-05T17:24:59.266Z,8.00
2018-02-05T17:27:26.721Z,7.83
2018-02-05T17:29:54.235Z,7.57
2018-02-05T17:32:21.704Z,7.83
2018-02-05T17:34:49.190Z,7.60
2018-02-05T17:37:17.414Z,8.17
2018-02-05T17:39:45.661Z,7.87
2018-02-05T17:42:13.118Z,8.53
2018-02-05T17:44:40.573Z,7.80
2018-02-05T17:47:08.058Z,8.17
2018-02-05T17:49:35.510Z,7.57
2018-02-05T17:52:03.198Z,7.63
2018-02-05T17:54:31.430Z,7.60
2018-02-05T17:56:58.890Z,7.27
2018-02-05T17:59:26.365Z,7.27
2018-02-05T18:01:54.618Z,7.33
2018-02-05T18:04:22.074Z,8.00
2018-02-05T18:06:49.550Z,7.50
2018-02-05T18:09:17.020Z,7.10
2018-02-05T18:11:44.470Z,7.40
2018-02-05T18:14:11.967Z,7.97
2018-02-05T18:16:40.202Z,8.37
2018-02-05T18:19:07.740Z,6.80
2018-02-05T18:21:36.050Z,7.50
2018-02-05T18:24:04.453Z,7.37
2018-02-05T18:26:32.690Z,8.33
2018-02-05T18:29:00.182Z,7.60
2018-02-05T18:31:28.430Z,7.77
2018-02-05T18:33:55.890Z,8.90
2018-02-05T18:36:24.134Z,8.50
2018-02-05T18:38:51.619Z,7.93
2018-02-05T18:41:19.062Z,7.87
2018-02-05T18:43:46.513Z,7.97
2018-02-05T18:46:13.982Z,8.47
2018-02-05T18:48:41.438Z,7.73
2018-02-05T18:51:08.934Z,8.53
2018-02-05T18:53:37.175Z,8.47
2018-02-05T18:56:04.632Z,8.87
2018-02-05T18:58:32.125Z,8.70
2018-02-05T19:00:59.585Z,9.03
2018-02-05T19:03:27.812Z,8.70
2018-02-05T19:05:55.281Z,9.53
2018-02-05T19:08:22.734Z,9.03
2018-02-05T19:10:50.205Z,9.17
2018-02-05T19:13:17.662Z,9.50
2018-02-05T19:15:45.150Z,8.93
2018-02-05T19:18:13.395Z,9.70
2018-02-05T19:20:40.895Z,9.63
2018-02-05T19:23:08.366Z,9.93
2018-02-05T19:25:35.823Z,9.47
2018-02-05T19:28:04.080Z,10.77
2018-02-05T19:30:32.294Z,9.07
2018-02-05T19:32:59.765Z,9.23
2018-02-05T19:35:27.225Z,9.47
2018-02-05T19:37:54.712Z,10.67
2018-02-05T19:40:22.954Z,10.87
2018-02-05T19:42:50.406Z,9.17
2018-02-05T19:45:17.891Z,10.70
2018-02-05T19:47:45.350Z,10.10
2018-02-05T19:50:12.817Z,11.00
2018-02-05T19:52:40.287Z,10.00
2018-02-05T19:55:07.797Z,9.67
2018-02-05T19:57:35.245Z,10.37
2018-02-05T20:00:02.717Z,11.40
2018-02-05T20:02:30.195Z,10.77
2018-02-05T20:04:57.675Z,11.63
2018-02-05T20:07:25.153Z,11.20
2018-02-05T20:09:52.638Z,11.73
2018-02-05T20:12:20.142Z,11.03
2018-02-05T20:14:48.375Z,11.70
2018-02-05T20:17:15.849Z,11.43
2018-02-05T20:19:43.338Z,12.67
2018-02-05T20:22:11.578Z,12.53
2018-02-05T20:24:39.035Z,12.43
2018-02-05T20:27:06.525Z,12.57
2018-02-05T20:29:34.762Z,13.97
2018-02-05T20:32:02.221Z,13.93
2018-02-05T20:34:29.706Z,15.10
2018-02-05T20:36:57.206Z,14.23
2018-02-05T20:39:24.671Z,14.67
2018-02-05T20:41:52.143Z,15.30
2018-02-05T20:44:19.610Z,15.17
2018-02-05T20:46:47.071Z,14.67
2018-02-05T20:49:14.548Z,15.87
2018-02-05T20:51:42.021Z,15.37
2018-02-05T20:54:10.249Z,15.73
2018-02-05T20:56:37.730Z,16.37
2018-02-05T20:59:05.223Z,16.43
2018-02-05T21:01:33.472Z,14.43
2018-02-05T21:04:00.953Z,14.07
2018-02-05T21:06:29.178Z,14.53
2018-02-05T21:08:56.664Z,15.17
2018-02-05T21:11:24.143Z,14.57
2018-02-05T21:13:52.458Z,13.43
2018-02-05T21:16:19.934Z,14.17
2018-02-05T21:18:47.408Z,14.07
2018-02-05T21:21:14.867Z,13.83
2018-02-05T21:23:42.357Z,13.33
2018-02-05T21:26:09.818Z,13.77
2018-02-05T21:28:37.286Z,13.57
2018-02-05T21:31:04.764Z,12.67
2018-02-05T21:33:32.234Z,14.30
2018-02-05T21:35:59.745Z,14.30
2018-02-05T21:38:28.040Z,15.03
2018-02-05T21:40:55.509Z,16.40
2018-02-05T21:43:22.986Z,16.37
2018-02-05T21:45:50.494Z,16.90
2018-02-05T21:48:17.945Z,16.17
2018-02-05T21:50:45.407Z,16.33
2018-02-05T21:53:13.642Z,15.97
2018-02-05T21:55:41.126Z,15.40
2018-02-05T21:58:08.597Z,16.67
2018-02-05T22:00:36.055Z,14.90
2018-02-05T22:03:04.341Z,16.80
2018-02-05T22:05:31.785Z,15.27
2018-02-05T22:07:59.243Z,15.07
2018-02-05T22:10:26.725Z,14.80
2018-02-05T22:12:54.185Z,14.70
2018-02-05T22:15:21.688Z,15.63
2018-02-05T22:17:49.149Z,15.57
2018-02-05T22:20:16.610Z,15.77
2018-02-05T22:22:44.865Z,16.37
2018-02-05T22:25:12.335Z,16.57
2018-02-05T22:27:39.818Z,16.63
2018-02-05T22:30:08.049Z,17.17
2018-02-05T22:32:35.550Z,17.83
2018-02-05T22:35:03.026Z,16.40
2018-02-05T22:37:30.493Z,18.07
2018-02-05T22:39:57.969Z,16.80
2018-02-05T22:42:25.466Z,20.60
2018-02-05T22:44:53.710Z,18.63
2018-02-05T22:47:21.182Z,17.23
2018-02-05T22:49:48.673Z,17.20
2018-02-05T22:52:16.134Z,16.60
2018-02-05T22:54:43.694Z,16.60
2018-02-05T22:57:11.153Z,16.77
2018-02-05T22:59:38.645Z,16.37
2018-02-05T23:02:06.113Z,16.83
2018-02-05T23:04:33.586Z,16.10
2018-02-05T23:07:01.045Z,16.63
2018-02-05T23:09:28.537Z,16.80
2018-02-05T23:11:55.998Z,16.97
2018-02-05T23:14:23.470Z,17.10
2018-02-05T23:16:50.956Z,15.53
2018-02-05T23:19:18.436Z,16.03
2018-02-05T23:21:45.932Z,16.73
2018-02-05T23:24:13.423Z,17.20
2018-02-05T23:26:40.871Z,17.40
2018-02-05T23:29:08.351Z,16.20
2018-02-05T23:31:35.815Z,16.93
2018-02-05T23:34:03.302Z,17.27
2018-02-05T23:36:30.741Z,19.03
2018-02-05T23:38:59.003Z,17.13
2018-02-05T23:41:26.479Z,16.90
2018-02-05T23:43:54.726Z,17.47
2018-02-05T23:46:22.209Z,16.13
2018-02-05T23:48:49.671Z,16.20
2018-02-05T23:51:17.134Z,16.50
2018-02-05T23:53:44.590Z,18.07
2018-02-05T23:56:12.853Z,16.77
2018-02-05T23:58:40.316Z,15.97
